Time;durP1;ratioP1;P1;durP2;ratioP2;P2;SDS_P1;SDS_P2;PMS_P1;PMS_P2;Temp;Humidity;BMP_temperature;BMP_pressure;BME280_temperature;BME280_humidity;BME280_pressure;Samples;Min_cycle;Max_cycle;Signal;HPM_P1;HPM_P2
2022/10/29 00:04:05;;;;;;;5.65;1.98;;;;;;;;;;10299994;28;20050;-78
2022/10/29 00:09:10;;;;;;;4.57;1.75;;;;;;;;;;10309468;28;20419;-78
2022/10/29 00:14:14;;;;;;;2.90;1.60;;;;;;;;;;10295742;28;20499;-78
2022/10/29 00:19:17;;;;;;;4.97;1.73;;;;;;;;;;10280599;28;20053;-77
2022/10/29 00:24:22;;;;;;;2.80;1.33;;;;;;;;;;10301565;28;20051;-77
2022/10/29 00:29:25;;;;;;;4.28;1.23;;;;;;;;;;10305710;28;20058;-80
2022/10/29 00:34:29;;;;;;;4.57;1.40;;;;;;;;;;10300612;28;20050;-80
2022/10/29 00:39:33;;;;;;;6.28;1.50;;;;;;;;;;10304905;28;20069;-80
2022/10/29 00:44:37;;;;;;;11.30;1.52;;;;;;;;;;10299318;28;20574;-80
2022/10/29 00:49:42;;;;;;;7.28;1.60;;;;;;;;;;10290848;28;20491;-76
2022/10/29 00:54:48;;;;;;;10.90;2.63;;;;;;;;;;10291455;28;20051;-79
2022/10/29 00:59:52;;;;;;;5.75;2.08;;;;;;;;;;10293713;28;20058;-80
2022/10/29 01:04:56;;;;;;;2.15;1.30;;;;;;;;;;10291652;28;20066;-79
2022/10/29 01:10:00;;;;;;;3.40;1.30;;;;;;;;;;10310916;28;20041;-79
2022/10/29 01:15:14;;;;;;;2.03;1.40;;;;;;;;;;10312491;28;20058;-79
2022/10/29 01:21:06;;;;;;;6.97;1.20;;;;;;;;;;10283514;28;20069;-78
2022/10/29 01:26:33;;;;;;;2.10;1.05;;;;;;;;;;10198614;28;20444;-77
2022/10/29 01:31:43;;;;;;;4.70;1.60;;;;;;;;;;10304418;28;20039;-79
2022/10/29 01:36:54;;;;;;;2.33;1.10;;;;;;;;;;10320391;28;20104;-77
2022/10/29 01:42:02;;;;;;;6.65;1.48;;;;;;;;;;10303699;28;20046;-79
2022/10/29 01:47:12;;;;;;;8.30;1.50;;;;;;;;;;10303286;28;20057;-79
2022/10/29 01:52:18;;;;;;;4.90;1.88;;;;;;;;;;10321158;28;20046;-78
2022/10/29 01:57:31;;;;;;;6.50;1.80;;;;;;;;;;10306640;28;20074;-79
2022/10/29 02:02:46;;;;;;;2.75;1.33;;;;;;;;;;10302974;28;20047;-78
2022/10/29 02:07:51;;;;;;;;;;;;;;;;;;10288245;28;20560;-78
2022/10/29 02:12:56;;;;;;;9.50;1.35;;;;;;;;;;10286343;28;20599;-80
2022/10/29 02:18:02;;;;;;;3.30;1.40;;;;;;;;;;10310837;28;20092;-77
2022/10/29 02:23:05;;;;;;;4.35;1.55;;;;;;;;;;10293333;28;20051;-80
2022/10/29 02:28:09;;;;;;;3.47;1.20;;;;;;;;;;10295249;28;20046;-76
2022/10/29 02:33:14;;;;;;;2.45;1.02;;;;;;;;;;10306168;28;20138;-79
2022/10/29 02:38:17;;;;;;;7.78;1.50;;;;;;;;;;10310782;28;20042;-77
2022/10/29 02:43:20;;;;;;;5.63;1.90;;;;;;;;;;10300172;28;20061;-78
2022/10/29 02:48:25;;;;;;;9.57;1.80;;;;;;;;;;10292902;28;20057;-78
2022/10/29 02:53:28;;;;;;;3.75;1.40;;;;;;;;;;10303086;28;20458;-79
2022/10/29 02:58:31;;;;;;;4.90;1.45;;;;;;;;;;10297707;28;20089;-79
2022/10/29 03:03:36;;;;;;;2.20;1.30;;;;;;;;;;10295515;28;20046;-79
2022/10/29 03:08:39;;;;;;;3.50;1.60;;;;;;;;;;10302219;28;20034;-79
2022/10/29 03:13:42;;;;;;;2.60;1.33;;;;;;;;;;10312837;28;20049;-79
2022/10/29 03:18:47;;;;;;;3.00;1.33;;;;;;;;;;10296538;28;20062;-80
2022/10/29 03:23:50;;;;;;;3.08;1.50;;;;;;;;;;10294614;28;20121;-80
2022/10/29 03:28:55;;;;;;;3.13;1.27;;;;;;;;;;10302903;28;20047;-79
2022/10/29 03:33:59;;;;;;;4.03;1.17;;;;;;;;;;10307660;28;20051;-78
2022/10/29 03:39:03;;;;;;;2.15;1.15;;;;;;;;;;10320416;28;20062;-76
2022/10/29 03:44:06;;;;;;;4.28;1.30;;;;;;;;;;10319368;28;20054;-79
2022/10/29 03:49:11;;;;;;;3.72;1.17;;;;;;;;;;10308663;28;20071;-80
2022/10/29 03:54:14;;;;;;;2.50;1.30;;;;;;;;;;10305618;28;20052;-77
2022/10/29 03:59:18;;;;;;;3.75;1.27;;;;;;;;;;10299374;28;20043;-77
2022/10/29 04:04:23;;;;;;;3.70;1.65;;;;;;;;;;10325562;28;20046;-79
2022/10/29 04:09:26;;;;;;;7.90;1.83;;;;;;;;;;10325300;28;20442;-79
2022/10/29 04:14:29;;;;;;;6.60;1.70;;;;;;;;;;10307285;28;20049;-79
2022/10/29 04:19:34;;;;;;;3.90;1.90;;;;;;;;;;10305239;28;20034;-75
2022/10/29 04:24:37;;;;;;;3.15;1.33;;;;;;;;;;10307769;28;20050;-79
2022/10/29 04:30:00;;;;;;;3.72;1.42;;;;;;;;;;10322519;28;20098;-79
2022/10/29 04:35:06;;;;;;;3.97;1.35;;;;;;;;;;10305277;28;20082;-79
2022/10/29 04:40:10;;;;;;;3.67;1.50;;;;;;;;;;10297122;28;20046;-79
2022/10/29 04:45:14;;;;;;;2.63;1.45;;;;;;;;;;10322929;28;20414;-78
2022/10/29 04:50:18;;;;;;;3.50;1.63;;;;;;;;;;10304263;28;20039;-77
2022/10/29 04:55:22;;;;;;;3.40;1.35;;;;;;;;;;10307763;28;20053;-78
2022/10/29 05:00:25;;;;;;;5.55;1.55;;;;;;;;;;10301508;28;20051;-79
2022/10/29 05:05:30;;;;;;;3.28;1.65;;;;;;;;;;10306752;28;20047;-78
2022/10/29 05:10:35;;;;;;;4.00;1.52;;;;;;;;;;10290248;28;20046;-79
2022/10/29 05:15:39;;;;;;;2.93;1.60;;;;;;;;;;10296790;28;20676;-78
2022/10/29 05:20:44;;;;;;;5.22;1.45;;;;;;;;;;10297327;28;20503;-79
2022/10/29 05:25:48;;;;;;;4.20;1.50;;;;;;;;;;10295730;28;20049;-78
2022/10/29 05:30:52;;;;;;;4.35;1.73;;;;;;;;;;10311837;28;20046;-77
2022/10/29 05:35:58;;;;;;;1.98;1.30;;;;;;;;;;10280219;28;20063;-79
2022/10/29 05:41:01;;;;;;;;;;;;;;;;;;10284969;28;20065;-79
2022/10/29 05:46:05;;;;;;;1.92;1.27;;;;;;;;;;10300045;28;20464;-79
2022/10/29 05:51:10;;;;;;;4.93;1.80;;;;;;;;;;10278140;28;20065;-77
2022/10/29 05:56:13;;;;;;;5.10;1.83;;;;;;;;;;10312407;28;20395;-79
2022/10/29 06:01:18;;;;;;;4.07;2.47;;;;;;;;;;10303335;28;20415;-76
2022/10/29 06:06:23;;;;;;;2.90;1.77;;;;;;;;;;10297598;28;20130;-78
2022/10/29 06:11:26;;;;;;;5.18;1.40;;;;;;;;;;10276472;28;20053;-78
2022/10/29 06:16:29;;;;;;;3.08;1.30;;;;;;;;;;10279424;28;20054;-78
2022/10/29 06:21:34;;;;;;;3.05;1.35;;;;;;;;;;10310625;28;20039;-78
2022/10/29 06:26:38;;;;;;;3.53;1.33;;;;;;;;;;10285181;28;20048;-80
2022/10/29 06:31:41;;;;;;;5.15;1.70;;;;;;;;;;10286268;28;20050;-80
2022/10/29 06:36:45;;;;;;;3.70;1.30;;;;;;;;;;10283474;28;20043;-78
2022/10/29 06:41:49;;;;;;;2.72;1.20;;;;;;;;;;10303975;28;20063;-80
2022/10/29 06:46:54;;;;;;;1.55;1.25;;;;;;;;;;10319114;28;20048;-79
2022/10/29 06:51:58;;;;;;;3.25;1.33;;;;;;;;;;10277634;28;20142;-78
2022/10/29 06:57:02;;;;;;;2.20;1.10;;;;;;;;;;10310848;28;20668;-77
2022/10/29 07:02:05;;;;;;;3.90;1.33;;;;;;;;;;10309827;28;20054;-78
2022/10/29 07:07:10;;;;;;;4.78;1.70;;;;;;;;;;10289672;28;20457;-78
2022/10/29 07:12:13;;;;;;;3.88;1.60;;;;;;;;;;10278981;28;20054;-77
2022/10/29 07:17:16;;;;;;;5.13;2.03;;;;;;;;;;10310079;28;20442;-79
2022/10/29 07:22:21;;;;;;;5.18;1.15;;;;;;;;;;10282342;28;20077;-79
2022/10/29 07:27:24;;;;;;;6.03;1.73;;;;;;;;;;10316933;28;20045;-79
2022/10/29 07:32:27;;;;;;;3.90;1.73;;;;;;;;;;10317873;28;20043;-79
2022/10/29 07:37:32;;;;;;;4.25;1.50;;;;;;;;;;10287634;28;20039;-80
2022/10/29 07:42:35;;;;;;;2.78;1.23;;;;;;;;;;10289256;28;20042;-78
2022/10/29 07:47:39;;;;;;;3.53;1.33;;;;;;;;;;10306679;28;20043;-78
2022/10/29 07:52:43;;;;;;;5.43;1.45;;;;;;;;;;10299676;28;20047;-80
2022/10/29 07:57:47;;;;;;;3.47;1.63;;;;;;;;;;10320641;28;20119;-79
2022/10/29 08:02:52;;;;;;;2.72;1.60;;;;;;;;;;10308654;28;20145;-78
2022/10/29 08:07:58;;;;;;;6.30;1.83;;;;;;;;;;10280295;28;20055;-77
2022/10/29 08:13:03;;;;;;;5.00;2.05;;;;;;;;;;10303601;28;20039;-78
2022/10/29 08:18:14;;;;;;;6.28;1.90;;;;;;;;;;10313519;28;20893;-79
2022/10/29 08:23:18;;;;;;;4.03;1.80;;;;;;;;;;10314525;28;20511;-78
2022/10/29 08:28:22;;;;;;;2.95;1.67;;;;;;;;;;10298538;28;20458;-78
2022/10/29 08:33:26;;;;;;;3.75;1.38;;;;;;;;;;10311327;28;20094;-78
2022/10/29 08:38:31;;;;;;;1.98;1.48;;;;;;;;;;10318457;28;20042;-78
2022/10/29 08:43:55;;;;;;;7.40;1.88;;;;;;;;;;10317948;28;20057;-79
2022/10/29 08:49:03;;;;;;;3.35;1.27;;;;;;;;;;10312980;28;20426;-79
2022/10/29 08:54:14;;;;;;;4.75;2.00;;;;;;;;;;10303143;28;20042;-80
2022/10/29 08:59:39;;;;;;;4.43;1.65;;;;;;;;;;10313128;28;20034;-79
2022/10/29 09:04:42;;;;;;;4.18;1.58;;;;;;;;;;10306998;28;20035;-79
2022/10/29 09:09:55;;;;;;;6.95;2.10;;;;;;;;;;10321290;28;20045;-78
2022/10/29 09:15:16;;;;;;;2.35;1.25;;;;;;;;;;10322643;28;20046;-79
2022/10/29 09:20:26;;;;;;;5.38;2.05;;;;;;;;;;10318479;28;20125;-79
2022/10/29 09:25:33;;;;;;;7.15;1.60;;;;;;;;;;10280534;28;20045;-80
2022/10/29 09:30:43;;;;;;;4.93;1.77;;;;;;;;;;10303776;28;20373;-80
2022/10/29 09:35:49;;;;;;;3.55;1.63;;;;;;;;;;10319352;28;20061;-78
2022/10/29 09:40:57;;;;;;;2.88;1.35;;;;;;;;;;10305945;28;20046;-79
2022/10/29 09:46:09;;;;;;;4.43;1.40;;;;;;;;;;10283547;28;20042;-78
2022/10/29 09:51:22;;;;;;;5.60;1.45;;;;;;;;;;10302225;28;20053;-80
2022/10/29 09:56:27;;;;;;;2.90;1.38;;;;;;;;;;10318339;28;20050;-78
2022/10/29 10:01:30;;;;;;;9.23;2.03;;;;;;;;;;10300814;28;20410;-78
2022/10/29 10:07:03;;;;;;;2.85;1.83;;;;;;;;;;10318100;28;20046;-78
2022/10/29 10:12:08;;;;;;;3.58;1.63;;;;;;;;;;10305707;28;20046;-80
2022/10/29 10:17:11;;;;;;;3.17;1.60;;;;;;;;;;10320401;28;20541;-80
2022/10/29 10:22:19;;;;;;;5.88;1.70;;;;;;;;;;10306078;28;20531;-79
2022/10/29 10:27:30;;;;;;;3.88;1.30;;;;;;;;;;10312769;28;20046;-81
2022/10/29 10:32:34;;;;;;;4.15;1.35;;;;;;;;;;10321388;28;20046;-78
2022/10/29 10:37:37;;;;;;;4.68;1.60;;;;;;;;;;10320632;28;20725;-80
2022/10/29 10:42:46;;;;;;;3.22;1.55;;;;;;;;;;10312200;28;20050;-79
2022/10/29 10:47:52;;;;;;;5.93;1.55;;;;;;;;;;10320110;28;20101;-79
2022/10/29 10:52:58;;;;;;;2.13;1.38;;;;;;;;;;10319482;28;20082;-80
2022/10/29 10:58:13;;;;;;;4.20;1.73;;;;;;;;;;10295758;28;20510;-80
2022/10/29 11:03:20;;;;;;;4.00;1.45;;;;;;;;;;10310043;28;20060;-80
2022/10/29 11:08:27;;;;;;;5.15;1.42;;;;;;;;;;10312055;28;20047;-78
2022/10/29 11:13:34;;;;;;;2.30;1.27;;;;;;;;;;10292926;28;20043;-80
2022/10/29 11:18:39;;;;;;;4.47;1.20;;;;;;;;;;10309911;28;20053;-79
2022/10/29 11:23:54;;;;;;;1.73;1.02;;;;;;;;;;10316141;28;20053;-79
2022/10/29 11:29:05;;;;;;;5.13;1.15;;;;;;;;;;10308495;28;20050;-80
2022/10/29 11:34:15;;;;;;;3.08;1.45;;;;;;;;;;10308719;28;20045;-79
2022/10/29 11:39:22;;;;;;;2.17;1.15;;;;;;;;;;10302517;28;20039;-78
2022/10/29 11:44:28;;;;;;;2.13;1.10;;;;;;;;;;10316292;28;20041;-78
2022/10/29 11:49:48;;;;;;;1.55;1.10;;;;;;;;;;10291113;28;20042;-80
2022/10/29 11:55:01;;;;;;;3.63;1.50;;;;;;;;;;10306918;28;20058;-80
2022/10/29 12:00:13;;;;;;;2.13;1.10;;;;;;;;;;10307184;28;20065;-81
2022/10/29 12:05:21;;;;;;;5.47;1.52;;;;;;;;;;10324625;28;20117;-79
2022/10/29 12:10:35;;;;;;;2.17;1.08;;;;;;;;;;10311664;28;20043;-80
2022/10/29 12:15:46;;;;;;;3.70;1.60;;;;;;;;;;10290909;28;20046;-79
2022/10/29 12:20:56;;;;;;;3.75;1.20;;;;;;;;;;10306008;28;20051;-79
2022/10/29 12:26:07;;;;;;;4.72;1.27;;;;;;;;;;10323678;28;20287;-79
2022/10/29 12:31:23;;;;;;;3.40;1.30;;;;;;;;;;10299388;28;20050;-78
2022/10/29 12:36:34;;;;;;;3.58;1.30;;;;;;;;;;10303808;28;20042;-79
2022/10/29 12:41:42;;;;;;;5.90;1.13;;;;;;;;;;10319374;28;20057;-79
2022/10/29 12:46:56;;;;;;;3.75;1.13;;;;;;;;;;10310348;28;20122;-79
2022/10/29 12:52:04;;;;;;;2.00;1.23;;;;;;;;;;10317550;28;20050;-78
2022/10/29 12:57:27;;;;;;;1.80;1.15;;;;;;;;;;10317180;28;20438;-79
2022/10/29 13:02:44;;;;;;;1.95;1.00;;;;;;;;;;10301571;28;20050;-77
2022/10/29 13:08:10;;;;;;;2.65;1.35;;;;;;;;;;10308475;28;20042;-79
2022/10/29 13:13:22;;;;;;;3.33;1.40;;;;;;;;;;10287612;28;20573;-78
2022/10/29 13:18:31;;;;;;;1.95;1.20;;;;;;;;;;10297981;28;20049;-78
2022/10/29 13:23:36;;;;;;;3.35;1.50;;;;;;;;;;10291703;28;20041;-77
2022/10/29 13:28:51;;;;;;;2.03;1.20;;;;;;;;;;10292687;28;20039;-78
2022/10/29 13:33:56;;;;;;;3.47;1.10;;;;;;;;;;10309888;28;20046;-78
2022/10/29 13:39:03;;;;;;;3.38;1.00;;;;;;;;;;10287751;28;20042;-78
2022/10/29 13:44:11;;;;;;;2.05;1.23;;;;;;;;;;10295710;28;20046;-78
2022/10/29 13:49:23;;;;;;;2.85;0.93;;;;;;;;;;10309300;28;20038;-78
2022/10/29 13:54:35;;;;;;;1.92;1.13;;;;;;;;;;10305158;28;20708;-78
2022/10/29 13:59:45;;;;;;;3.83;1.25;;;;;;;;;;10298104;28;20038;-78
2022/10/29 14:04:54;;;;;;;2.58;1.23;;;;;;;;;;10298938;28;20047;-78
2022/10/29 14:10:05;;;;;;;3.80;1.13;;;;;;;;;;10277986;28;20053;-79
2022/10/29 14:15:10;;;;;;;3.88;1.30;;;;;;;;;;10296723;28;20133;-79
2022/10/29 14:20:27;;;;;;;3.00;1.23;;;;;;;;;;10304405;28;20526;-78
2022/10/29 14:25:35;;;;;;;2.95;1.30;;;;;;;;;;10310185;28;20517;-78
2022/10/29 14:30:39;;;;;;;2.55;1.33;;;;;;;;;;10287060;28;20109;-78
2022/10/29 14:35:44;;;;;;;2.95;0.90;;;;;;;;;;10308226;28;20046;-78
2022/10/29 14:40:47;;;;;;;2.25;1.13;;;;;;;;;;10301808;28;20050;-79
2022/10/29 14:45:51;;;;;;;1.42;0.95;;;;;;;;;;10300036;28;20061;-78
2022/10/29 14:50:57;;;;;;;2.53;1.10;;;;;;;;;;10291299;28;20067;-78
2022/10/29 14:56:03;;;;;;;3.97;1.40;;;;;;;;;;10293843;28;20050;-78
2022/10/29 15:01:12;;;;;;;2.78;0.95;;;;;;;;;;10287365;28;20756;-78
2022/10/29 15:06:20;;;;;;;3.75;1.20;;;;;;;;;;10295700;28;20053;-79
2022/10/29 15:11:36;;;;;;;6.57;1.33;;;;;;;;;;10286806;28;20058;-78
2022/10/29 15:16:39;;;;;;;;;;;;;;;;;;10288468;28;20042;-79
2022/10/29 15:21:45;;;;;;;3.00;0.98;;;;;;;;;;10324445;28;19933;-78
2022/10/29 15:26:50;;;;;;;1.27;1.13;;;;;;;;;;10317941;28;20101;-79
2022/10/29 15:31:55;;;;;;;2.40;1.05;;;;;;;;;;10300735;28;20526;-79
2022/10/29 15:37:14;;;;;;;2.92;1.25;;;;;;;;;;10315820;28;20065;-78
2022/10/29 15:42:22;;;;;;;3.65;0.88;;;;;;;;;;10308686;28;20118;-77
2022/10/29 15:47:28;;;;;;;2.28;1.15;;;;;;;;;;10314625;28;20050;-78
2022/10/29 15:52:37;;;;;;;2.92;1.20;;;;;;;;;;10303448;28;20047;-78
2022/10/29 15:57:41;;;;;;;1.33;1.13;;;;;;;;;;10311107;28;20046;-77
2022/10/29 16:02:44;;;;;;;1.75;1.25;;;;;;;;;;10317176;28;20527;-78
2022/10/29 16:07:49;;;;;;;2.10;1.23;;;;;;;;;;10300414;28;20050;-77
2022/10/29 16:12:53;;;;;;;5.50;1.90;;;;;;;;;;10301200;28;20053;-77
2022/10/29 16:17:56;;;;;;;5.07;1.88;;;;;;;;;;10315301;28;20070;-78
2022/10/29 16:23:01;;;;;;;5.00;2.25;;;;;;;;;;10310967;28;20565;-78
2022/10/29 16:28:04;;;;;;;7.57;4.78;;;;;;;;;;10302750;28;20057;-78
2022/10/29 16:33:11;;;;;;;10.85;7.18;;;;;;;;;;10310186;28;20053;-78
2022/10/29 16:38:17;;;;;;;9.13;5.32;;;;;;;;;;10304333;28;20046;-77
2022/10/29 16:43:20;;;;;;;10.63;7.53;;;;;;;;;;10307793;28;20039;-77
2022/10/29 16:48:23;;;;;;;7.93;4.90;;;;;;;;;;10308121;28;20038;-78
2022/10/29 16:53:28;;;;;;;4.18;2.70;;;;;;;;;;10307167;28;20521;-79
2022/10/29 16:58:31;;;;;;;3.38;2.30;;;;;;;;;;10308997;28;20046;-78
2022/10/29 17:03:34;;;;;;;2.72;1.70;;;;;;;;;;10314236;28;20057;-78
2022/10/29 17:08:40;;;;;;;4.53;1.90;;;;;;;;;;10307930;28;20647;-77
2022/10/29 17:13:43;;;;;;;6.17;1.50;;;;;;;;;;10314133;28;20038;-78
2022/10/29 17:18:49;;;;;;;3.85;1.52;;;;;;;;;;10308638;28;20817;-78
2022/10/29 17:23:54;;;;;;;;;;;;;;;;;;10295955;28;20137;-77
2022/10/29 17:28:57;;;;;;;5.97;1.75;;;;;;;;;;10312606;28;19922;-80
2022/10/29 17:34:00;;;;;;;4.68;2.65;;;;;;;;;;10313896;28;20049;-79
2022/10/29 17:39:05;;;;;;;8.27;4.25;;;;;;;;;;10295879;28;20070;-78
2022/10/29 17:44:08;;;;;;;7.72;4.00;;;;;;;;;;10314692;28;20256;-78
2022/10/29 17:49:12;;;;;;;7.25;3.67;;;;;;;;;;10305351;28;20058;-78
2022/10/29 17:54:17;;;;;;;7.38;3.83;;;;;;;;;;10296918;28;20583;-79
2022/10/29 17:59:21;;;;;;;5.37;3.50;;;;;;;;;;10301859;28;20053;-78
2022/10/29 18:04:24;;;;;;;8.25;4.35;;;;;;;;;;10314725;28;20527;-78
2022/10/29 18:09:29;;;;;;;7.30;4.10;;;;;;;;;;10307885;28;20591;-78
2022/10/29 18:14:32;;;;;;;4.30;3.20;;;;;;;;;;10312044;28;20049;-79
2022/10/29 18:19:35;;;;;;;6.25;2.45;;;;;;;;;;10307350;28;20090;-77
2022/10/29 18:24:40;;;;;;;2.47;1.73;;;;;;;;;;10307429;28;20117;-79
2022/10/29 18:29:44;;;;;;;3.20;2.17;;;;;;;;;;10300804;28;20048;-79
2022/10/29 18:34:47;;;;;;;3.85;1.75;;;;;;;;;;10317722;28;20062;-78
2022/10/29 18:39:55;;;;;;;3.92;1.80;;;;;;;;;;10314679;28;20065;-79
2022/10/29 18:44:58;;;;;;;4.47;1.85;;;;;;;;;;10313286;28;20146;-79
2022/10/29 18:50:01;;;;;;;5.53;1.85;;;;;;;;;;10315581;28;20041;-81
2022/10/29 18:55:07;;;;;;;4.88;1.58;;;;;;;;;;10296846;28;20054;-79
2022/10/29 19:00:12;;;;;;;6.90;2.22;;;;;;;;;;10310668;28;20042;-78
2022/10/29 19:05:15;;;;;;;5.60;1.60;;;;;;;;;;10304142;28;20046;-77
2022/10/29 19:10:20;;;;;;;3.25;1.45;;;;;;;;;;10309614;28;20057;-77
2022/10/29 19:15:23;;;;;;;4.70;1.38;;;;;;;;;;10308510;28;20042;-79
2022/10/29 19:20:27;;;;;;;3.08;1.75;;;;;;;;;;10314195;28;20049;-78
2022/10/29 19:25:31;;;;;;;3.75;1.40;;;;;;;;;;10319347;28;20058;-80
2022/10/29 19:30:36;;;;;;;3.75;1.63;;;;;;;;;;10321491;28;20039;-80
2022/10/29 19:35:39;;;;;;;4.45;1.70;;;;;;;;;;10325420;28;20751;-78
2022/10/29 19:40:44;;;;;;;4.72;1.70;;;;;;;;;;10316397;28;20039;-79
2022/10/29 19:45:47;;;;;;;3.50;1.90;;;;;;;;;;10298688;28;20133;-76
2022/10/29 19:50:53;;;;;;;5.07;1.92;;;;;;;;;;10320208;28;20418;-78
2022/10/29 19:55:58;;;;;;;5.35;2.10;;;;;;;;;;10321176;28;20121;-76
2022/10/29 20:01:05;;;;;;;6.15;2.40;;;;;;;;;;10310022;28;20442;-78
2022/10/29 20:06:08;;;;;;;4.43;2.40;;;;;;;;;;10292130;28;20073;-78
2022/10/29 20:11:13;;;;;;;5.30;2.67;;;;;;;;;;10313704;28;20049;-78
2022/10/29 20:16:21;;;;;;;4.97;2.67;;;;;;;;;;10321170;28;20046;-79
2022/10/29 20:21:24;;;;;;;6.85;3.20;;;;;;;;;;10309112;28;20248;-76
2022/10/29 20:26:29;;;;;;;5.55;2.30;;;;;;;;;;10288083;28;20414;-78
2022/10/29 20:31:33;;;;;;;3.80;2.38;;;;;;;;;;10314087;28;20388;-79
2022/10/29 20:36:39;;;;;;;5.22;2.28;;;;;;;;;;10316357;28;20590;-78
2022/10/29 20:41:44;;;;;;;4.63;2.30;;;;;;;;;;10318547;28;20510;-79
2022/10/29 20:46:47;;;;;;;4.13;2.92;;;;;;;;;;10310391;28;20034;-80
2022/10/29 20:51:50;;;;;;;6.78;2.85;;;;;;;;;;10300961;28;20499;-78
2022/10/29 20:56:55;;;;;;;5.57;2.90;;;;;;;;;;10314455;28;20053;-78
2022/10/29 21:01:58;;;;;;;6.00;2.63;;;;;;;;;;10317274;28;20043;-79
2022/10/29 21:07:02;;;;;;;4.57;2.67;;;;;;;;;;10311511;28;20093;-78
2022/10/29 21:12:07;;;;;;;8.00;2.80;;;;;;;;;;10319869;28;20042;-80
2022/10/29 21:17:11;;;;;;;5.87;3.20;;;;;;;;;;10321128;28;20057;-78
2022/10/29 21:22:17;;;;;;;5.70;2.53;;;;;;;;;;10301785;28;20039;-78
2022/10/29 21:27:22;;;;;;;3.97;2.03;;;;;;;;;;10316727;28;20189;-79
2022/10/29 21:32:25;;;;;;;5.07;2.13;;;;;;;;;;10307656;28;20411;-77
2022/10/29 21:37:29;;;;;;;4.72;1.42;;;;;;;;;;10301526;28;20057;-78
2022/10/29 21:42:33;;;;;;;6.22;2.10;;;;;;;;;;10305596;28;20227;-78
2022/10/29 21:47:37;;;;;;;8.95;2.38;;;;;;;;;;10310440;28;20074;-79
2022/10/29 21:52:40;;;;;;;5.57;2.20;;;;;;;;;;10317201;28;20053;-77
2022/10/29 21:57:44;;;;;;;3.70;2.15;;;;;;;;;;10286452;28;20130;-78
2022/10/29 22:02:48;;;;;;;2.97;1.63;;;;;;;;;;10295316;28;20042;-78
2022/10/29 22:07:51;;;;;;;4.22;1.38;;;;;;;;;;10294058;28;20054;-78
2022/10/29 22:12:56;;;;;;;4.53;1.48;;;;;;;;;;10303433;28;20046;-78
2022/10/29 22:17:59;;;;;;;2.28;1.35;;;;;;;;;;10303014;28;20651;-79
2022/10/29 22:23:02;;;;;;;4.75;1.48;;;;;;;;;;10288492;28;20045;-78
2022/10/29 22:28:07;;;;;;;4.15;1.50;;;;;;;;;;10305767;28;20503;-78
2022/10/29 22:33:10;;;;;;;3.33;1.52;;;;;;;;;;10297586;28;20472;-78
2022/10/29 22:38:13;;;;;;;4.15;1.23;;;;;;;;;;10297841;28;20049;-79
2022/10/29 22:43:20;;;;;;;3.00;1.80;;;;;;;;;;10309536;28;20384;-78
2022/10/29 22:48:23;;;;;;;3.35;1.73;;;;;;;;;;10306483;28;20097;-79
2022/10/29 22:53:27;;;;;;;5.28;1.67;;;;;;;;;;10304587;28;20042;-78
2022/10/29 22:58:32;;;;;;;4.80;1.60;;;;;;;;;;10306347;28;20057;-77
2022/10/29 23:03:37;;;;;;;4.45;1.63;;;;;;;;;;10298135;28;20051;-78
2022/10/29 23:08:41;;;;;;;3.65;1.63;;;;;;;;;;10272622;28;20060;-79
2022/10/29 23:13:46;;;;;;;2.83;1.45;;;;;;;;;;10304348;28;20047;-77
2022/10/29 23:18:50;;;;;;;2.95;1.70;;;;;;;;;;10281669;28;20051;-78
2022/10/29 23:23:53;;;;;;;2.63;1.75;;;;;;;;;;10283921;28;20045;-77
2022/10/29 23:28:58;;;;;;;3.78;1.50;;;;;;;;;;10313102;28;20038;-78
2022/10/29 23:34:01;;;;;;;7.53;1.80;;;;;;;;;;10301746;28;20053;-77
2022/10/29 23:39:05;;;;;;;4.00;1.95;;;;;;;;;;10279185;28;20043;-78
2022/10/29 23:44:09;;;;;;;3.92;1.90;;;;;;;;;;10301572;28;20046;-79
2022/10/29 23:49:13;;;;;;;7.70;2.03;;;;;;;;;;10291479;28;20050;-78
2022/10/29 23:54:16;;;;;;;4.80;1.98;;;;;;;;;;10285738;28;20054;-78
2022/10/29 23:59:21;;;;;;;4.90;2.10;;;;;;;;;;10303979;28;20100;-77
